sensor_id;sensor_type;location;lat;lon;timestamp;pressure;altitude;pressure_sealevel;temperature;humidity
54042;BME280;41156;51.508;5.406;2023-08-08T00:02:30;101369.81;;;14.25;100.00
54042;BME280;41156;51.508;5.406;2023-08-08T00:05:30;101363.78;;;14.23;100.00
54042;BME280;41156;51.508;5.406;2023-08-08T00:08:30;101367.31;;;14.23;100.00
54042;BME280;41156;51.508;5.406;2023-08-08T00:11:31;101367.31;;;14.23;100.00
54042;BME280;41156;51.508;5.406;2023-08-08T00:14:31;101364.00;;;14.21;100.00
54042;BME280;41156;51.508;5.406;2023-08-08T00:17:31;101361.06;;;14.23;100.00
54042;BME280;41156;51.508;5.406;2023-08-08T00:20:32;101362.34;;;14.20;100.00
54042;BME280;41156;51.508;5.406;2023-08-08T00:23:32;101370.47;;;14.20;100.00
54042;BME280;41156;51.508;5.406;2023-08-08T00:26:32;101368.41;;;14.22;100.00
54042;BME280;41156;51.508;5.406;2023-08-08T00:29:33;101370.03;;;14.23;100.00
54042;BME280;41156;51.508;5.406;2023-08-08T00:32:33;101374.22;;;14.26;100.00
54042;BME280;41156;51.508;5.406;2023-08-08T00:35:33;101365.81;;;14.28;100.00
54042;BME280;41156;51.508;5.406;2023-08-08T00:38:34;101355.78;;;14.28;100.00
54042;BME280;41156;51.508;5.406;2023-08-08T00:41:34;101356.38;;;14.30;100.00
54042;BME280;41156;51.508;5.406;2023-08-08T00:44:34;101352.59;;;14.31;100.00
54042;BME280;41156;51.508;5.406;2023-08-08T00:47:35;101349.06;;;14.31;100.00
54042;BME280;41156;51.508;5.406;2023-08-08T00:50:36;101352.59;;;14.31;100.00
54042;BME280;41156;51.508;5.406;2023-08-08T00:53:37;101347.16;;;14.31;100.00
54042;BME280;41156;51.508;5.406;2023-08-08T00:56:37;101335.00;;;14.34;100.00
54042;BME280;41156;51.508;5.406;2023-08-08T00:59:37;101335.41;;;14.37;100.00
54042;BME280;41156;51.508;5.406;2023-08-08T01:02:38;101343.56;;;14.37;100.00
54042;BME280;41156;51.508;5.406;2023-08-08T01:05:43;101353.34;;;14.38;100.00
54042;BME280;41156;51.508;5.406;2023-08-08T01:09:23;101355.03;;;14.39;100.00
54042;BME280;41156;51.508;5.406;2023-08-08T01:12:25;101347.91;;;14.38;100.00
54042;BME280;41156;51.508;5.406;2023-08-08T01:15:26;101345.56;;;14.42;100.00
54042;BME280;41156;51.508;5.406;2023-08-08T01:18:28;101345.34;;;14.43;100.00
54042;BME280;41156;51.508;5.406;2023-08-08T01:21:29;101347.00;;;14.44;100.00
54042;BME280;41156;51.508;5.406;2023-08-08T01:24:31;101336.13;;;14.44;100.00
54042;BME280;41156;51.508;5.406;2023-08-08T01:27:34;101338.84;;;14.44;100.00
54042;BME280;41156;51.508;5.406;2023-08-08T01:30:35;101341.56;;;14.44;100.00
54042;BME280;41156;51.508;5.406;2023-08-08T01:33:35;101344.88;;;14.47;100.00
54042;BME280;41156;51.508;5.406;2023-08-08T01:36:49;101350.69;;;14.50;100.00
54042;BME280;41156;51.508;5.406;2023-08-08T01:39:52;101348.19;;;14.49;100.00
54042;BME280;41156;51.508;5.406;2023-08-08T01:42:54;101345.72;;;14.47;100.00
54042;BME280;41156;51.508;5.406;2023-08-08T01:45:55;101337.31;;;14.49;100.00
54042;BME280;41156;51.508;5.406;2023-08-08T01:48:58;101333.09;;;14.53;100.00
54042;BME280;41156;51.508;5.406;2023-08-08T01:51:59;101332.28;;;14.52;100.00
54042;BME280;41156;51.508;5.406;2023-08-08T01:54:59;101329.78;;;14.51;100.00
54042;BME280;41156;51.508;5.406;2023-08-08T01:57:59;101328.94;;;14.50;100.00
54042;BME280;41156;51.508;5.406;2023-08-08T02:01:00;101323.50;;;14.50;100.00
54042;BME280;41156;51.508;5.406;2023-08-08T02:04:00;101321.00;;;14.49;100.00
54042;BME280;41156;51.508;5.406;2023-08-08T02:07:00;101314.38;;;14.44;100.00
54042;BME280;41156;51.508;5.406;2023-08-08T02:10:01;101319.09;;;14.37;100.00
54042;BME280;41156;51.508;5.406;2023-08-08T02:13:01;101314.56;;;14.31;100.00
54042;BME280;41156;51.508;5.406;2023-08-08T02:16:02;101312.50;;;14.27;100.00
54042;BME280;41156;51.508;5.406;2023-08-08T02:19:02;101325.50;;;14.24;100.00
54042;BME280;41156;51.508;5.406;2023-08-08T02:22:02;101317.22;;;14.19;100.00
54042;BME280;41156;51.508;5.406;2023-08-08T02:25:03;101308.22;;;14.19;100.00
54042;BME280;41156;51.508;5.406;2023-08-08T02:28:04;101306.56;;;14.18;100.00
54042;BME280;41156;51.508;5.406;2023-08-08T02:31:05;101302.16;;;14.17;100.00
54042;BME280;41156;51.508;5.406;2023-08-08T02:34:05;101304.88;;;14.17;100.00
54042;BME280;41156;51.508;5.406;2023-08-08T02:37:05;101304.88;;;14.17;100.00
54042;BME280;41156;51.508;5.406;2023-08-08T02:40:06;101294.47;;;14.14;100.00
54042;BME280;41156;51.508;5.406;2023-08-08T02:43:08;101296.13;;;14.15;100.00
54042;BME280;41156;51.508;5.406;2023-08-08T02:46:09;101291.06;;;14.18;100.00
54042;BME280;41156;51.508;5.406;2023-08-08T02:49:09;101281.28;;;14.17;100.00
54042;BME280;41156;51.508;5.406;2023-08-08T02:52:10;101281.28;;;14.17;100.00
54042;BME280;41156;51.508;5.406;2023-08-08T02:55:10;101269.31;;;14.18;100.00
54042;BME280;41156;51.508;5.406;2023-08-08T02:58:10;101275.34;;;14.20;100.00
54042;BME280;41156;51.508;5.406;2023-08-08T03:01:11;101273.72;;;14.19;100.00
54042;BME280;41156;51.508;5.406;2023-08-08T03:04:13;101274.75;;;14.18;100.00
54042;BME280;41156;51.508;5.406;2023-08-08T03:07:13;101279.38;;;14.18;100.00
54042;BME280;41156;51.508;5.406;2023-08-08T03:10:14;101286.72;;;14.17;100.00
54042;BME280;41156;51.508;5.406;2023-08-08T03:13:14;101277.94;;;14.15;100.00
54042;BME280;41156;51.508;5.406;2023-08-08T03:16:15;101286.31;;;14.14;100.00
54042;BME280;41156;51.508;5.406;2023-08-08T03:19:15;101278.16;;;14.14;100.00
54042;BME280;41156;51.508;5.406;2023-08-08T03:22:15;101277.13;;;14.15;100.00
54042;BME280;41156;51.508;5.406;2023-08-08T03:25:16;101281.72;;;14.14;100.00
54042;BME280;41156;51.508;5.406;2023-08-08T03:28:16;101270.84;;;14.14;100.00
54042;BME280;41156;51.508;5.406;2023-08-08T03:31:17;101270.63;;;14.16;100.00
54042;BME280;41156;51.508;5.406;2023-08-08T03:34:17;101273.94;;;14.18;100.00
54042;BME280;41156;51.508;5.406;2023-08-08T03:37:18;101270.19;;;14.19;100.00
54042;BME280;41156;51.508;5.406;2023-08-08T03:40:18;101268.28;;;14.19;100.00
54042;BME280;41156;51.508;5.406;2023-08-08T03:43:18;101271.81;;;14.20;100.00
54042;BME280;41156;51.508;5.406;2023-08-08T03:46:18;101270.78;;;14.21;100.00
54042;BME280;41156;51.508;5.406;2023-08-08T03:49:19;101269.09;;;14.20;100.00
54042;BME280;41156;51.508;5.406;2023-08-08T03:52:19;101275.44;;;14.14;100.00
54042;BME280;41156;51.508;5.406;2023-08-08T03:55:19;101260.06;;;14.07;100.00
54042;BME280;41156;51.508;5.406;2023-08-08T03:58:20;101266.78;;;14.05;100.00
54042;BME280;41156;51.508;5.406;2023-08-08T04:01:20;101262.25;;;13.99;100.00
54042;BME280;41156;51.508;5.406;2023-08-08T04:04:20;101268.16;;;13.96;100.00
54042;BME280;41156;51.508;5.406;2023-08-08T04:07:21;101260.69;;;13.91;100.00
54042;BME280;41156;51.508;5.406;2023-08-08T04:10:21;101261.56;;;13.85;100.00
54042;BME280;41156;51.508;5.406;2023-08-08T04:13:21;101268.09;;;13.84;100.00
54042;BME280;41156;51.508;5.406;2023-08-08T04:16:22;101264.16;;;13.80;100.00
54042;BME280;41156;51.508;5.406;2023-08-08T04:19:22;101269.19;;;13.76;100.00
54042;BME280;41156;51.508;5.406;2023-08-08T04:22:23;101271.53;;;13.73;100.00
54042;BME280;41156;51.508;5.406;2023-08-08T04:25:23;101264.66;;;13.70;100.00
54042;BME280;41156;51.508;5.406;2023-08-08T04:28:24;101261.34;;;13.68;100.00
54042;BME280;41156;51.508;5.406;2023-08-08T04:31:24;101256.59;;;13.63;100.00
54042;BME280;41156;51.508;5.406;2023-08-08T04:34:25;101263.09;;;13.62;100.00
54042;BME280;41156;51.508;5.406;2023-08-08T04:37:26;101260.81;;;13.59;100.00
54042;BME280;41156;51.508;5.406;2023-08-08T04:40:26;101259.16;;;13.58;100.00
54042;BME280;41156;51.508;5.406;2023-08-08T04:43:26;101271.47;;;13.61;100.00
54042;BME280;41156;51.508;5.406;2023-08-08T04:46:29;101269.34;;;13.63;100.00
54042;BME280;41156;51.508;5.406;2023-08-08T04:49:30;101270.16;;;13.63;100.00
54042;BME280;41156;51.508;5.406;2023-08-08T04:52:30;101266.78;;;13.68;100.00
54042;BME280;41156;51.508;5.406;2023-08-08T04:55:30;101268.47;;;13.69;100.00
54042;BME280;41156;51.508;5.406;2023-08-08T04:58:31;101267.81;;;13.67;100.00
54042;BME280;41156;51.508;5.406;2023-08-08T05:01:31;101270.09;;;13.70;100.00
54042;BME280;41156;51.508;5.406;2023-08-08T05:04:32;101264.44;;;13.72;100.00
54042;BME280;41156;51.508;5.406;2023-08-08T05:07:32;101266.94;;;13.73;100.00
54042;BME280;41156;51.508;5.406;2023-08-08T05:10:36;101259.59;;;13.74;100.00
54042;BME280;41156;51.508;5.406;2023-08-08T05:13:36;101267.53;;;13.75;100.00
54042;BME280;41156;51.508;5.406;2023-08-08T05:16:37;101265.91;;;13.74;100.00
54042;BME280;41156;51.508;5.406;2023-08-08T05:19:37;101263.41;;;13.73;100.00
54042;BME280;41156;51.508;5.406;2023-08-08T05:22:38;101257.53;;;13.76;100.00
54042;BME280;41156;51.508;5.406;2023-08-08T05:25:38;101259.16;;;13.77;100.00
54042;BME280;41156;51.508;5.406;2023-08-08T05:28:38;101260.84;;;13.78;100.00
54042;BME280;41156;51.508;5.406;2023-08-08T05:31:39;101260.84;;;13.78;100.00
54042;BME280;41156;51.508;5.406;2023-08-08T05:34:39;101267.09;;;13.78;100.00
54042;BME280;41156;51.508;5.406;2023-08-08T05:37:39;101263.69;;;13.83;100.00
54042;BME280;41156;51.508;5.406;2023-08-08T05:40:40;101270.31;;;13.87;100.00
54042;BME280;41156;51.508;5.406;2023-08-08T05:43:40;101267.75;;;13.92;100.00
54042;BME280;41156;51.508;5.406;2023-08-08T05:46:41;101281.53;;;13.97;100.00
54042;BME280;41156;51.508;5.406;2023-08-08T05:49:41;101276.81;;;14.04;100.00
54042;BME280;41156;51.508;5.406;2023-08-08T05:52:42;101267.78;;;14.11;100.00
54042;BME280;41156;51.508;5.406;2023-08-08T05:55:43;101268.06;;;14.21;100.00
54042;BME280;41156;51.508;5.406;2023-08-08T05:58:43;101265.63;;;14.31;100.00
54042;BME280;41156;51.508;5.406;2023-08-08T06:01:44;101268.03;;;14.39;100.00
54042;BME280;41156;51.508;5.406;2023-08-08T06:04:44;101268.75;;;14.47;100.00
54042;BME280;41156;51.508;5.406;2023-08-08T06:07:45;101273.63;;;14.56;100.00
54042;BME280;41156;51.508;5.406;2023-08-08T06:10:45;101278.56;;;14.66;100.00
54042;BME280;41156;51.508;5.406;2023-08-08T06:13:46;101268.75;;;14.77;100.00
54042;BME280;41156;51.508;5.406;2023-08-08T06:16:46;101272.34;;;14.89;100.00
54042;BME280;41156;51.508;5.406;2023-08-08T06:19:46;101285.41;;;14.99;100.00
54042;BME280;41156;51.508;5.406;2023-08-08T06:22:47;101273.31;;;15.07;100.00
54042;BME280;41156;51.508;5.406;2023-08-08T06:25:47;101277.84;;;15.13;100.00
54042;BME280;41156;51.508;5.406;2023-08-08T06:28:47;101282.91;;;15.09;100.00
54042;BME280;41156;51.508;5.406;2023-08-08T06:31:48;101285.06;;;15.07;100.00
54042;BME280;41156;51.508;5.406;2023-08-08T06:34:48;101280.78;;;15.11;100.00
54042;BME280;41156;51.508;5.406;2023-08-08T06:37:48;101287.06;;;15.24;100.00
54042;BME280;41156;51.508;5.406;2023-08-08T06:40:49;101279.50;;;15.38;100.00
54042;BME280;41156;51.508;5.406;2023-08-08T06:43:49;101279.28;;;15.51;100.00
54042;BME280;41156;51.508;5.406;2023-08-08T06:46:50;101287.56;;;15.68;100.00
54042;BME280;41156;51.508;5.406;2023-08-08T06:49:51;101275.72;;;15.86;100.00
54042;BME280;41156;51.508;5.406;2023-08-08T06:52:51;101275.31;;;16.06;100.00
54042;BME280;41156;51.508;5.406;2023-08-08T06:55:51;101284.88;;;16.20;100.00
54042;BME280;41156;51.508;5.406;2023-08-08T06:58:53;101283.53;;;16.35;100.00
54042;BME280;41156;51.508;5.406;2023-08-08T07:01:53;101289.28;;;16.50;100.00
54042;BME280;41156;51.508;5.406;2023-08-08T07:04:53;101291.13;;;16.61;100.00
54042;BME280;41156;51.508;5.406;2023-08-08T07:07:54;101284.31;;;16.76;100.00
54042;BME280;41156;51.508;5.406;2023-08-08T07:10:56;101292.94;;;16.85;100.00
54042;BME280;41156;51.508;5.406;2023-08-08T07:13:57;101287.91;;;16.93;100.00
54042;BME280;41156;51.508;5.406;2023-08-08T07:16:57;101290.81;;;17.04;100.00
54042;BME280;41156;51.508;5.406;2023-08-08T07:19:58;101288.28;;;17.14;100.00
54042;BME280;41156;51.508;5.406;2023-08-08T07:22:59;101281.22;;;17.18;100.00
54042;BME280;41156;51.508;5.406;2023-08-08T07:26:00;101293.81;;;17.19;100.00
54042;BME280;41156;51.508;5.406;2023-08-08T07:29:00;101293.25;;;17.17;100.00
54042;BME280;41156;51.508;5.406;2023-08-08T07:32:03;101295.97;;;17.17;100.00
54042;BME280;41156;51.508;5.406;2023-08-08T07:35:03;101284.84;;;17.07;100.00
54042;BME280;41156;51.508;5.406;2023-08-08T07:38:05;101287.16;;;17.15;100.00
54042;BME280;41156;51.508;5.406;2023-08-08T07:41:06;101283.63;;;17.31;100.00
54042;BME280;41156;51.508;5.406;2023-08-08T07:44:06;101285.00;;;17.51;100.00
54042;BME280;41156;51.508;5.406;2023-08-08T07:47:07;101289.25;;;17.81;100.00
54042;BME280;41156;51.508;5.406;2023-08-08T07:50:08;101293.81;;;17.92;100.00
54042;BME280;41156;51.508;5.406;2023-08-08T07:53:08;101281.41;;;18.06;100.00
54042;BME280;41156;51.508;5.406;2023-08-08T07:56:09;101297.88;;;18.11;100.00
54042;BME280;41156;51.508;5.406;2023-08-08T07:59:09;101281.72;;;18.10;100.00
54042;BME280;41156;51.508;5.406;2023-08-08T08:02:10;101285.94;;;18.18;100.00
54042;BME280;41156;51.508;5.406;2023-08-08T08:05:11;101289.22;;;18.20;100.00
54042;BME280;41156;51.508;5.406;2023-08-08T08:08:11;101271.19;;;18.19;100.00
54042;BME280;41156;51.508;5.406;2023-08-08T08:11:12;101287.59;;;18.19;100.00
54042;BME280;41156;51.508;5.406;2023-08-08T08:14:13;101290.38;;;18.24;100.00
54042;BME280;41156;51.508;5.406;2023-08-08T08:17:13;101280.63;;;18.33;100.00
54042;BME280;41156;51.508;5.406;2023-08-08T08:20:13;101280.88;;;18.54;100.00
54042;BME280;41156;51.508;5.406;2023-08-08T08:23:15;101293.47;;;18.82;100.00
54042;BME280;41156;51.508;5.406;2023-08-08T08:26:15;101291.59;;;19.15;100.00
54042;BME280;41156;51.508;5.406;2023-08-08T08:29:15;101301.91;;;19.40;100.00
54042;BME280;41156;51.508;5.406;2023-08-08T08:32:16;101296.13;;;19.36;100.00
54042;BME280;41156;51.508;5.406;2023-08-08T08:35:16;101287.59;;;19.28;100.00
54042;BME280;41156;51.508;5.406;2023-08-08T08:38:16;101289.03;;;19.03;100.00
54042;BME280;41156;51.508;5.406;2023-08-08T08:41:19;101292.22;;;18.95;100.00
54042;BME280;41156;51.508;5.406;2023-08-08T08:44:22;101284.81;;;18.90;100.00
54042;BME280;41156;51.508;5.406;2023-08-08T08:47:24;101285.25;;;18.82;100.00
54042;BME280;41156;51.508;5.406;2023-08-08T08:50:27;101292.69;;;18.86;100.00
54042;BME280;41156;51.508;5.406;2023-08-08T08:53:27;101286.16;;;18.88;100.00
54042;BME280;41156;51.508;5.406;2023-08-08T08:56:28;101285.94;;;18.94;100.00
54042;BME280;41156;51.508;5.406;2023-08-08T08:59:29;101286.50;;;18.96;100.00
54042;BME280;41156;51.508;5.406;2023-08-08T09:02:29;101294.13;;;18.89;100.00
54042;BME280;41156;51.508;5.406;2023-08-08T09:05:30;101304.50;;;18.87;100.00
54042;BME280;41156;51.508;5.406;2023-08-08T09:08:31;101298.44;;;18.85;100.00
54042;BME280;41156;51.508;5.406;2023-08-08T09:11:31;101301.69;;;18.82;100.00
54042;BME280;41156;51.508;5.406;2023-08-08T09:14:32;101299.47;;;18.79;100.00
54042;BME280;41156;51.508;5.406;2023-08-08T09:17:32;101303.78;;;18.75;100.00
54042;BME280;41156;51.508;5.406;2023-08-08T09:20:33;101296.97;;;18.77;100.00
54042;BME280;41156;51.508;5.406;2023-08-08T09:23:33;101295.31;;;18.76;100.00
54042;BME280;41156;51.508;5.406;2023-08-08T09:26:34;101293.31;;;18.66;100.00
54042;BME280;41156;51.508;5.406;2023-08-08T09:29:37;101297.91;;;18.61;100.00
54042;BME280;41156;51.508;5.406;2023-08-08T09:32:38;101295.44;;;18.59;100.00
54042;BME280;41156;51.508;5.406;2023-08-08T09:35:39;101296.88;;;18.67;100.00
54042;BME280;41156;51.508;5.406;2023-08-08T09:38:40;101306.31;;;18.81;100.00
54042;BME280;41156;51.508;5.406;2023-08-08T09:41:40;101305.16;;;18.99;100.00
54042;BME280;41156;51.508;5.406;2023-08-08T09:44:42;101304.41;;;19.09;100.00
54042;BME280;41156;51.508;5.406;2023-08-08T09:47:42;101304.72;;;19.13;100.00
54042;BME280;41156;51.508;5.406;2023-08-08T09:50:43;101308.59;;;19.17;100.00
54042;BME280;41156;51.508;5.406;2023-08-08T09:53:45;101311.38;;;19.22;100.00
54042;BME280;41156;51.508;5.406;2023-08-08T09:56:48;101307.56;;;19.28;100.00
54042;BME280;41156;51.508;5.406;2023-08-08T09:59:49;101298.34;;;19.39;100.00
54042;BME280;41156;51.508;5.406;2023-08-08T10:02:51;101295.94;;;19.48;100.00
54042;BME280;41156;51.508;5.406;2023-08-08T10:05:52;101302.19;;;19.76;100.00
54042;BME280;41156;51.508;5.406;2023-08-08T10:08:52;101299.03;;;20.10;99.77
54042;BME280;41156;51.508;5.406;2023-08-08T10:11:54;101307.59;;;20.13;95.90
54042;BME280;41156;51.508;5.406;2023-08-08T10:14:55;101306.22;;;20.16;98.59
54042;BME280;41156;51.508;5.406;2023-08-08T10:17:57;101304.13;;;20.39;97.36
54042;BME280;41156;51.508;5.406;2023-08-08T10:20:58;101298.72;;;20.69;94.69
54042;BME280;41156;51.508;5.406;2023-08-08T10:24:06;101293.53;;;20.94;89.77
54042;BME280;41156;51.508;5.406;2023-08-08T10:27:06;101297.09;;;21.15;92.41
54042;BME280;41156;51.508;5.406;2023-08-08T10:30:08;101301.22;;;20.92;89.67
54042;BME280;41156;51.508;5.406;2023-08-08T10:33:21;101301.41;;;20.59;85.57
54042;BME280;41156;51.508;5.406;2023-08-08T10:36:22;101295.91;;;20.54;89.53
54042;BME280;41156;51.508;5.406;2023-08-08T10:39:24;101306.94;;;20.64;90.39
54042;BME280;41156;51.508;5.406;2023-08-08T10:42:27;101303.88;;;20.56;87.84
54042;BME280;41156;51.508;5.406;2023-08-08T10:45:29;101302.44;;;20.38;90.29
54042;BME280;41156;51.508;5.406;2023-08-08T10:48:30;101315.00;;;20.18;90.18
54042;BME280;41156;51.508;5.406;2023-08-08T10:51:45;101320.50;;;19.70;88.02
54042;BME280;41156;51.508;5.406;2023-08-08T10:54:56;101323.28;;;19.38;91.08
54042;BME280;41156;51.508;5.406;2023-08-08T11:01:03;101305.06;;;19.21;94.06
54042;BME280;41156;51.508;5.406;2023-08-08T11:04:07;101290.09;;;19.34;94.61
54042;BME280;41156;51.508;5.406;2023-08-08T11:07:08;101295.88;;;19.75;94.21
54042;BME280;41156;51.508;5.406;2023-08-08T11:10:09;101293.38;;;20.32;93.03
54042;BME280;41156;51.508;5.406;2023-08-08T11:13:09;101281.69;;;20.73;91.50
54042;BME280;41156;51.508;5.406;2023-08-08T11:16:10;101280.91;;;20.93;89.05
54042;BME280;41156;51.508;5.406;2023-08-08T11:19:11;101283.94;;;21.12;84.44
54042;BME280;41156;51.508;5.406;2023-08-08T11:22:12;101281.69;;;21.50;87.53
54042;BME280;41156;51.508;5.406;2023-08-08T11:25:14;101284.97;;;21.72;79.15
54042;BME280;41156;51.508;5.406;2023-08-08T11:28:15;101279.44;;;21.77;82.07
54042;BME280;41156;51.508;5.406;2023-08-08T11:31:15;101279.69;;;21.86;85.19
54042;BME280;41156;51.508;5.406;2023-08-08T11:34:15;101280.13;;;22.19;82.35
54042;BME280;41156;51.508;5.406;2023-08-08T11:37:16;101279.81;;;22.21;84.11
54042;BME280;41156;51.508;5.406;2023-08-08T11:40:17;101279.34;;;22.08;84.28
54042;BME280;41156;51.508;5.406;2023-08-08T11:43:18;101278.50;;;22.08;83.97
54042;BME280;41156;51.508;5.406;2023-08-08T11:46:22;101282.88;;;22.14;81.55
54042;BME280;41156;51.508;5.406;2023-08-08T11:49:22;101278.81;;;22.01;83.80
54042;BME280;41156;51.508;5.406;2023-08-08T11:52:22;101287.66;;;21.88;84.24
54042;BME280;41156;51.508;5.406;2023-08-08T11:55:30;101286.31;;;21.85;81.13
54042;BME280;41156;51.508;5.406;2023-08-08T11:58:30;101291.97;;;22.14;84.41
54042;BME280;41156;51.508;5.406;2023-08-08T12:01:33;101273.56;;;22.60;82.08
54042;BME280;41156;51.508;5.406;2023-08-08T12:04:34;101276.25;;;22.75;80.17
54042;BME280;41156;51.508;5.406;2023-08-08T12:07:35;101275.06;;;22.81;81.34
54042;BME280;41156;51.508;5.406;2023-08-08T12:10:35;101271.88;;;22.69;82.00
54042;BME280;41156;51.508;5.406;2023-08-08T12:13:41;101267.84;;;22.51;75.06
54042;BME280;41156;51.508;5.406;2023-08-08T12:16:42;101270.81;;;22.60;77.44
54042;BME280;41156;51.508;5.406;2023-08-08T12:19:46;101282.19;;;22.87;76.22
54042;BME280;41156;51.508;5.406;2023-08-08T12:22:47;101265.69;;;23.22;75.05
54042;BME280;41156;51.508;5.406;2023-08-08T12:25:48;101268.34;;;23.32;74.48
54042;BME280;41156;51.508;5.406;2023-08-08T12:28:48;101265.94;;;23.25;74.19
54042;BME280;41156;51.508;5.406;2023-08-08T12:31:50;101274.59;;;23.14;72.35
54042;BME280;41156;51.508;5.406;2023-08-08T12:34:51;101268.50;;;23.17;70.24
54042;BME280;41156;51.508;5.406;2023-08-08T12:37:51;101278.78;;;23.35;69.70
54042;BME280;41156;51.508;5.406;2023-08-08T12:40:52;101267.59;;;23.26;67.61
54042;BME280;41156;51.508;5.406;2023-08-08T12:43:52;101261.38;;;23.05;63.76
54042;BME280;41156;51.508;5.406;2023-08-08T12:46:53;101262.38;;;22.85;67.16
54042;BME280;41156;51.508;5.406;2023-08-08T12:49:53;101264.13;;;22.71;67.49
54042;BME280;41156;51.508;5.406;2023-08-08T12:52:53;101252.31;;;23.00;64.94
54042;BME280;41156;51.508;5.406;2023-08-08T12:55:54;101258.38;;;23.07;65.81
54042;BME280;41156;51.508;5.406;2023-08-08T12:58:54;101267.16;;;22.69;66.21
54042;BME280;41156;51.508;5.406;2023-08-08T13:01:55;101263.50;;;22.40;66.43
54042;BME280;41156;51.508;5.406;2023-08-08T13:04:55;101257.50;;;22.32;67.53
54042;BME280;41156;51.508;5.406;2023-08-08T13:07:55;101264.38;;;22.25;67.75
54042;BME280;41156;51.508;5.406;2023-08-08T13:10:56;101256.13;;;22.30;67.68
54042;BME280;41156;51.508;5.406;2023-08-08T13:13:56;101260.47;;;22.41;68.30
54042;BME280;41156;51.508;5.406;2023-08-08T13:16:56;101246.91;;;22.55;67.53
54042;BME280;41156;51.508;5.406;2023-08-08T13:19:57;101267.38;;;22.78;66.29
54042;BME280;41156;51.508;5.406;2023-08-08T13:22:57;101261.47;;;22.95;66.35
54042;BME280;41156;51.508;5.406;2023-08-08T13:25:57;101260.69;;;22.89;66.50
54042;BME280;41156;51.508;5.406;2023-08-08T13:28:58;101262.47;;;22.75;65.94
54042;BME280;41156;51.508;5.406;2023-08-08T13:31:58;101264.72;;;23.02;65.39
54042;BME280;41156;51.508;5.406;2023-08-08T13:34:58;101262.47;;;23.39;64.32
54042;BME280;41156;51.508;5.406;2023-08-08T13:37:59;101264.78;;;23.32;63.87
54042;BME280;41156;51.508;5.406;2023-08-08T13:40:59;101262.72;;;23.13;62.33
54042;BME280;41156;51.508;5.406;2023-08-08T13:44:00;101275.50;;;22.99;63.36
54042;BME280;41156;51.508;5.406;2023-08-08T13:47:01;101272.28;;;22.86;64.80
54042;BME280;41156;51.508;5.406;2023-08-08T13:50:01;101289.03;;;23.30;64.17
54042;BME280;41156;51.508;5.406;2023-08-08T13:53:01;101283.22;;;23.31;63.85
54042;BME280;41156;51.508;5.406;2023-08-08T13:56:02;101286.91;;;23.51;63.03
54042;BME280;41156;51.508;5.406;2023-08-08T13:59:02;101295.16;;;23.80;61.93
54042;BME280;41156;51.508;5.406;2023-08-08T14:02:03;101275.91;;;23.99;59.98
54042;BME280;41156;51.508;5.406;2023-08-08T14:05:03;101274.69;;;23.86;59.46
54042;BME280;41156;51.508;5.406;2023-08-08T14:08:06;101279.19;;;23.77;59.16
54042;BME280;41156;51.508;5.406;2023-08-08T14:11:07;101279.03;;;23.92;58.22
54042;BME280;41156;51.508;5.406;2023-08-08T14:14:07;101275.41;;;24.16;53.20
54042;BME280;41156;51.508;5.406;2023-08-08T14:17:07;101274.69;;;24.29;56.70
54042;BME280;41156;51.508;5.406;2023-08-08T14:20:08;101267.56;;;24.04;56.87
54042;BME280;41156;51.508;5.406;2023-08-08T14:23:16;101261.81;;;24.00;56.59
54042;BME280;41156;51.508;5.406;2023-08-08T14:26:17;101264.72;;;24.09;56.25
54042;BME280;41156;51.508;5.406;2023-08-08T14:29:17;101256.66;;;24.13;56.58
54042;BME280;41156;51.508;5.406;2023-08-08T14:32:17;101260.66;;;24.26;55.17
54042;BME280;41156;51.508;5.406;2023-08-08T14:35:18;101265.44;;;24.20;56.44
54042;BME280;41156;51.508;5.406;2023-08-08T14:38:18;101254.88;;;24.03;56.94
54042;BME280;41156;51.508;5.406;2023-08-08T14:41:18;101247.78;;;23.97;57.35
54042;BME280;41156;51.508;5.406;2023-08-08T14:44:19;101252.88;;;24.09;55.80
54042;BME280;41156;51.508;5.406;2023-08-08T14:47:19;101259.78;;;24.06;56.99
54042;BME280;41156;51.508;5.406;2023-08-08T14:50:20;101252.88;;;23.60;55.38
54042;BME280;41156;51.508;5.406;2023-08-08T14:53:20;101254.84;;;23.31;57.97
54042;BME280;41156;51.508;5.406;2023-08-08T14:56:20;101258.13;;;23.33;58.83
54042;BME280;41156;51.508;5.406;2023-08-08T14:59:21;101256.28;;;23.23;59.27
54042;BME280;41156;51.508;5.406;2023-08-08T15:02:21;101260.84;;;23.08;59.72
54042;BME280;41156;51.508;5.406;2023-08-08T15:05:22;101260.91;;;22.98;60.42
54042;BME280;41156;51.508;5.406;2023-08-08T15:08:22;101278.34;;;22.88;60.20
54042;BME280;41156;51.508;5.406;2023-08-08T15:11:25;101273.25;;;22.66;60.64
54042;BME280;41156;51.508;5.406;2023-08-08T15:14:25;101265.16;;;22.41;61.51
54042;BME280;41156;51.508;5.406;2023-08-08T15:17:26;101277.63;;;22.23;61.74
54042;BME280;41156;51.508;5.406;2023-08-08T15:20:26;101279.59;;;22.12;62.52
54042;BME280;41156;51.508;5.406;2023-08-08T15:23:27;101280.50;;;21.92;63.48
54042;BME280;41156;51.508;5.406;2023-08-08T15:26:28;101284.38;;;21.86;64.15
54042;BME280;41156;51.508;5.406;2023-08-08T15:29:28;101286.03;;;21.76;64.94
54042;BME280;41156;51.508;5.406;2023-08-08T15:32:28;101281.66;;;21.80;65.54
54042;BME280;41156;51.508;5.406;2023-08-08T15:35:29;101290.69;;;21.86;65.57
54042;BME280;41156;51.508;5.406;2023-08-08T15:38:29;101287.41;;;21.84;66.14
54042;BME280;41156;51.508;5.406;2023-08-08T15:41:30;101302.03;;;21.64;65.77